Center Rutland, Vermont
Current Conditions -  °F | °C
As of 3:55 AM on Wednesday 26 Nov 2014 (Local Time) from KRUT Reporting Station
Few Clouds Few Clouds  
Wind Chill:   Ceiling: Unl
Heat Index:   Visibility: 10mi
Dew Point: -4°   Wind: 5mph
Humidity: 60%   Direction: 340°NNW
Pressure: 30.17"   Gusts: NA
Location:  43.6°N, 73.01°W
Report Text: KRUT 260855Z 34004KT 10SM FEW033 03/M04 A3017 RMK AO1 52014
Loading
Personal Weather Stations






























Interactive Weather Map New forecast layout! Learn more

10-Day Weather Forecast

Advertisements
Track Severe Weather on mobile